Terminal Aerodrome Forecast
Issued by NWS

Home | Current Version | Previous Version | Text Only | Print | Product List | Glossary On
Versions: 1 2 3 4 5 6 7 8 9 10 11 12 13 14 15 16 17 18 19
000
FTUS43 KGRR 211100
TAFBTL
TAF
KBTL 211139Z 2112/2212 28012KT P6SM SCT015 SCT020 BKN025
      TEMPO 2112/2114 SCT015
     FM211400 29018G28KT P6SM VCSH OVC018
     FM211500 30018G28KT 4SM -SHRA BR OVC007
     FM211800 30018G30KT P6SM VCSH OVC015
     FM212000 31014G24KT P6SM BKN035
     FM220200 33012KT P6SM BKN015=

USA.gov is the U.S. government's official web portal to all federal, state and local government web resources and services.